Time;durP1;ratioP1;P1;durP2;ratioP2;P2;SDS_P1;SDS_P2;PMS_P1;PMS_P2;Temp;Humidity;BMP_temperature;BMP_pressure;BME280_temperature;BME280_humidity;BME280_pressure;Samples;Min_cycle;Max_cycle;Signal;HPM_P1;HPM_P2
2023/01/24 00:04:13;;;;;;;57.30;23.10;;;;;;;2.94;93.76;102757.81;683036;1263;138874;-79
2023/01/24 00:19:16;;;;;;;98.40;31.50;;;;;;;2.90;93.79;102751.65;682818;1262;139276;-79
2023/01/24 00:34:20;;;;;;;53.40;20.90;;;;;;;2.90;94.10;102751.16;682805;1263;140322;-79
2023/01/24 00:49:23;;;;;;;52.60;20.50;;;;;;;2.90;94.05;102745.27;682873;1263;139300;-79
2023/01/24 01:04:27;;;;;;;44.10;19.00;;;;;;;2.84;94.27;102748.65;682833;1262;139373;-78
2023/01/24 01:19:30;;;;;;;49.10;19.50;;;;;;;2.85;94.22;102743.98;682969;1263;139853;-79
2023/01/24 01:34:33;;;;;;;45.60;19.60;;;;;;;2.81;94.34;102736.60;682991;1262;138643;-79
2023/01/24 01:49:41;;;;;;;43.90;19.40;;;;;;;2.75;94.59;102738.25;683091;1263;138712;-79
2023/01/24 02:04:48;;;;;;;42.00;18.40;;;;;;;2.82;94.44;102737.79;683002;1260;139507;-79
2023/01/24 02:19:57;;;;;;;48.60;19.20;;;;;;;2.86;94.09;102735.66;682767;1259;139520;-79
2023/01/24 02:35:01;;;;;;;47.90;19.50;;;;;;;2.91;94.25;102738.35;683039;1263;138625;-79
2023/01/24 02:50:06;;;;;;;43.60;18.10;;;;;;;2.91;94.31;102739.90;682902;1263;138987;-79
2023/01/24 03:05:10;;;;;;;50.10;20.70;;;;;;;2.89;94.19;102747.18;683094;1263;138571;-79
2023/01/24 03:35:36;;;;;;;47.20;20.70;;;;;;;2.80;94.47;102744.23;683078;1259;138743;-80
2023/01/24 04:06:07;;;;;;;52.70;19.80;;;;;;;2.74;94.89;102722.72;682875;1261;139636;-79
2023/01/24 04:21:12;;;;;;;47.50;19.30;;;;;;;2.80;94.51;102719.35;683101;1259;138787;-81
2023/01/24 04:36:16;;;;;;;41.90;20.10;;;;;;;2.81;94.25;102715.87;682800;1260;138509;-80
2023/01/24 04:51:25;;;;;;;57.20;26.40;;;;;;;2.81;94.26;102711.54;683007;1263;138928;-79
2023/01/24 05:06:31;;;;;;;48.00;21.30;;;;;;;2.82;94.43;102714.99;682807;1262;139810;-80
2023/01/24 05:21:35;;;;;;;56.10;29.50;;;;;;;2.85;94.21;102720.30;682579;1260;138973;-80
2023/01/24 05:36:38;;;;;;;60.70;26.30;;;;;;;2.83;94.28;102737.10;682766;1263;138107;-80
2023/01/24 05:51:42;;;;;;;80.70;31.10;;;;;;;2.83;94.46;102743.98;683174;1272;138859;-80
2023/01/24 06:06:48;;;;;;;48.00;21.80;;;;;;;2.83;94.46;102750.40;682902;1263;138527;-80
2023/01/24 06:22:21;;;;;;;77.40;35.30;;;;;;;2.86;94.32;102762.46;683056;1262;138927;-80
2023/01/24 06:37:41;;;;;;;80.60;32.40;;;;;;;2.79;94.78;102766.55;683058;1262;140152;-81
2023/01/24 06:52:46;;;;;;;113.30;46.00;;;;;;;2.83;94.48;102782.03;683132;1263;138839;-80
2023/01/24 07:07:50;;;;;;;110.60;40.50;;;;;;;2.89;94.04;102788.50;683078;1260;140718;-80
2023/01/24 07:22:55;;;;;;;62.30;28.50;;;;;;;2.86;93.65;102792.35;683146;1260;138885;-80
2023/01/24 07:38:00;;;;;;;46.40;21.70;;;;;;;2.82;93.70;102786.02;682737;1263;138807;-80
2023/01/24 07:53:03;;;;;;;78.60;34.20;;;;;;;2.91;93.54;102784.33;682870;1262;139502;-80
2023/01/24 08:08:07;;;;;;;72.30;30.20;;;;;;;2.99;93.09;102806.67;682671;1263;138767;-80
2023/01/24 08:23:10;;;;;;;75.80;33.40;;;;;;;3.10;92.68;102826.89;683012;1263;139075;-80
2023/01/24 08:38:15;;;;;;;35.50;20.20;;;;;;;3.16;91.88;102843.92;683005;1259;138800;-81
2023/01/24 08:53:18;;;;;;;414.90;149.50;;;;;;;3.17;90.87;102853.95;683084;1259;138973;-80
2023/01/24 09:08:22;;;;;;;80.90;34.90;;;;;;;3.30;90.53;102858.94;682810;1259;139376;-80
2023/01/24 09:23:26;;;;;;;56.90;25.80;;;;;;;3.33;89.26;102868.23;682561;1260;142398;-80
2023/01/24 09:38:32;;;;;;;57.30;30.40;;;;;;;3.31;88.54;102865.48;683055;1258;138694;-79
2023/01/24 09:53:42;;;;;;;63.50;28.50;;;;;;;3.39;87.48;102844.77;682953;1259;140159;-80
2023/01/24 10:09:12;;;;;;;82.00;37.00;;;;;;;3.45;86.42;102846.73;683241;1257;138602;-80
2023/01/24 10:24:22;;;;;;;48.30;25.30;;;;;;;3.54;86.07;102831.52;683082;1264;138601;-80
2023/01/24 10:39:27;;;;;;;62.30;32.80;;;;;;;3.49;85.06;102819.85;683178;1259;137778;-81
2023/01/24 10:54:30;;;;;;;72.40;33.80;;;;;;;3.67;85.73;102802.39;682873;1261;139749;-82
2023/01/24 11:09:34;;;;;;;130.80;44.30;;;;;;;3.90;84.87;102786.54;683293;1263;139460;-80
2023/01/24 11:24:43;;;;;;;87.40;34.80;;;;;;;3.60;82.53;102761.84;682854;1258;139016;-80
2023/01/24 11:39:59;;;;;;;120.10;50.30;;;;;;;3.59;82.14;102753.22;682979;1262;139849;-82
2023/01/24 11:55:23;;;;;;;109.90;47.80;;;;;;;3.56;82.21;102763.65;683059;1262;139548;-80
2023/01/24 12:10:49;;;;;;;53.60;26.10;;;;;;;3.55;81.98;102758.33;682720;1265;139021;-82
2023/01/24 12:26:01;;;;;;;61.00;29.50;;;;;;;3.49;82.40;102768.80;682440;1262;139466;-80
2023/01/24 12:41:20;;;;;;;43.00;22.40;;;;;;;3.31;82.12;102755.80;682379;1263;140400;-81
2023/01/24 12:56:27;;;;;;;47.60;24.20;;;;;;;3.11;81.72;102741.48;682691;1263;139387;-82
2023/01/24 13:11:34;;;;;;;100.30;48.10;;;;;;;3.01;82.06;102734.38;682319;1260;139395;-83
2023/01/24 13:27:07;;;;;;;150.90;64.20;;;;;;;2.91;81.66;102737.48;682709;1263;139813;-82
2023/01/24 13:42:22;;;;;;;56.70;32.40;;;;;;;2.73;81.75;102724.11;682623;1263;139657;-82
2023/01/24 13:57:28;;;;;;;32.80;18.20;;;;;;;2.28;81.13;102719.44;682485;1263;139864;-81
2023/01/24 14:12:37;;;;;;;55.60;24.90;;;;;;;2.03;81.46;102718.05;682495;1262;140182;-83
2023/01/24 14:27:53;;;;;;;67.50;32.10;;;;;;;1.96;81.29;102710.89;682480;1263;139003;-82
2023/01/24 14:43:03;;;;;;;49.30;23.30;;;;;;;1.84;81.49;102692.77;682617;1263;139338;-83
2023/01/24 14:58:14;;;;;;;50.10;23.70;;;;;;;1.77;81.61;102713.55;682490;1263;139196;-81
2023/01/24 15:13:24;;;;;;;45.40;25.40;;;;;;;1.70;81.77;102722.43;682582;1258;139825;-81
2023/01/24 15:28:30;;;;;;;101.40;45.90;;;;;;;1.49;80.84;102737.33;682641;1263;138640;-82
2023/01/24 15:43:46;;;;;;;124.90;49.30;;;;;;;1.18;80.40;102727.66;682397;1265;139401;-81
2023/01/24 15:58:50;;;;;;;84.30;35.10;;;;;;;1.35;81.37;102715.06;682629;1263;139542;-82
2023/01/24 16:13:55;;;;;;;49.60;23.10;;;;;;;1.32;80.24;102715.61;682221;1265;139821;-81
2023/01/24 16:28:59;;;;;;;64.60;27.80;;;;;;;1.17;80.24;102701.11;682645;1263;139101;-81
2023/01/24 16:44:02;;;;;;;93.90;49.50;;;;;;;1.20;80.06;102700.58;682583;1263;140723;-81
2023/01/24 16:59:07;;;;;;;70.00;35.20;;;;;;;1.24;80.57;102687.59;682510;1258;139088;-82
2023/01/24 17:14:10;;;;;;;87.60;36.40;;;;;;;1.23;80.63;102690.52;682593;1266;139263;-82
2023/01/24 17:29:16;;;;;;;47.60;20.70;;;;;;;1.27;80.62;102702.38;682343;1259;139031;-81
2023/01/24 17:44:21;;;;;;;104.00;42.30;;;;;;;1.17;80.29;102701.63;682314;1263;139027;-81
2023/01/24 17:59:24;;;;;;;91.40;41.80;;;;;;;0.86;79.47;102702.59;682436;1265;139160;-81
2023/01/24 18:14:28;;;;;;;81.10;41.80;;;;;;;0.78;80.07;102703.52;682268;1270;140168;-82
2023/01/24 18:29:31;;;;;;;74.80;29.10;;;;;;;0.50;79.83;102701.85;681853;1264;139711;-82
2023/01/24 18:44:35;;;;;;;48.80;22.50;;;;;;;0.42;79.46;102710.52;682115;1266;139121;-82
2023/01/24 18:59:39;;;;;;;194.10;65.00;;;;;;;0.60;80.04;102701.95;682271;1264;139475;-81
2023/01/24 19:14:43;;;;;;;79.60;34.00;;;;;;;0.71;80.16;102708.23;682263;1260;140315;-81
2023/01/24 19:29:46;;;;;;;92.50;40.20;;;;;;;0.57;79.87;102707.15;682436;1261;139329;-81
2023/01/24 19:44:53;;;;;;;112.60;40.10;;;;;;;0.51;80.01;102715.28;682480;1261;139693;-81
2023/01/24 19:59:56;;;;;;;62.70;27.60;;;;;;;0.64;80.76;102700.89;682453;1259;139489;-82
2023/01/24 20:15:00;;;;;;;74.90;30.00;;;;;;;0.66;80.24;102689.68;682513;1259;139989;-81
2023/01/24 20:30:04;;;;;;;53.70;24.90;;;;;;;0.66;80.29;102685.20;682304;1263;138769;-81
2023/01/24 20:45:13;;;;;;;;;;;;;;;0.51;79.61;102695.13;682540;1265;138675;-82
2023/01/24 21:00:16;;;;;;;64.50;27.60;;;;;;;0.45;80.00;102698.27;682445;1258;125007;-82
2023/01/24 21:15:23;;;;;;;115.80;43.10;;;;;;;0.47;79.84;102712.71;682255;1260;139519;-83
2023/01/24 21:30:27;;;;;;;59.60;27.40;;;;;;;0.42;80.33;102689.16;682319;1263;139520;-82
2023/01/24 21:45:30;;;;;;;113.90;46.20;;;;;;;0.40;80.01;102654.94;682259;1259;138733;-83
2023/01/24 22:00:34;;;;;;;48.20;22.60;;;;;;;0.10;79.24;102655.12;682303;1263;139615;-83
2023/01/24 22:15:38;;;;;;;51.10;25.70;;;;;;;0.11;79.22;102648.23;682788;1260;139729;-82
2023/01/24 22:30:42;;;;;;;60.20;26.50;;;;;;;-0.08;79.45;102633.38;682521;1263;140700;-82
2023/01/24 22:45:46;;;;;;;58.10;24.20;;;;;;;-0.04;79.42;102615.46;682469;1260;139096;-83
2023/01/24 23:00:49;;;;;;;58.10;24.20;;;;;;;0.02;79.75;102635.91;682602;1262;139174;-82
2023/01/24 23:16:11;;;;;;;61.50;25.50;;;;;;;0.14;80.06;102639.45;682402;1260;139060;-82
2023/01/24 23:31:15;;;;;;;69.30;28.40;;;;;;;0.12;80.13;102615.88;682478;1259;138899;-82
2023/01/24 23:46:18;;;;;;;53.40;23.60;;;;;;;-0.30;79.49;102588.45;682687;1258;139792;-81
